Bridgegate — 9V2189 — position and weather

sailwx.info

Track history (hours):
 
Tides and Currents Weather Stations Pressure Air Temp Water Temp Dewpoint Dewpoint Depression Visibility Wind Speed Wind Dir Waves Ship Positions

Bridgegate

Last reported at 2017-Sep-19 23:34 UTC. Time now 2017-Sep-23 02:25 UTC.
Position N 40°29' E 027°07'.

Length 190 m; draft 10.8 m.

Type: Cargo ship. MMSI: 566987000.

Date/timePositionNaut miles runAvg speedWind from/ knotsBaromVisibWave heightAir tempDewpointWater temp
2017-Sep-19 23:34N 40°29' E 027°07'0 0.1
2017-Sep-19 23:19N 40°29' E 027°07'0 0.0
2017-Sep-19 22:52N 40°29' E 027°07'0 0.0
2017-Sep-19 21:10N 40°29' E 027°07'0 0.0
2017-Sep-19 20:28N 40°29' E 027°07'0 0.0
2017-Sep-19 18:34N 40°29' E 027°07'0 0.0
2017-Sep-19 17:28N 40°29' E 027°07'0 0.1
2017-Sep-19 15:55N 40°29' E 027°07'37 2.1
2017-Sep-18 22:21N 40°12' E 026°25'1211.5
2017-Sep-18 21:16N 40°02' E 026°16'312.1
2017-Sep-18 21:00N 40°01' E 026°12'5 9.1
2017-Sep-18 20:29N 39°60' E 026°06'612.9
2017-Sep-18 20:00N 39°57' E 025°59'612.7
2017-Sep-18 19:30N 39°52' E 025°53'612.9
2017-Sep-18 19:00N 39°47' E 025°50'814.1
2017-Sep-18 18:28N 39°40' E 025°45'3614.4
2017-Sep-18 15:59N 39°08' E 025°24'3514.5
2017-Sep-18 13:36N 38°37' E 025°04'2714.4
2017-Sep-18 11:44N 38°13' E 024°49'314.8
2017-Sep-18 11:30N 38°10' E 024°46'1615.2
2017-Sep-18 10:28N 37°56' E 024°37'1912.7
2017-Sep-18 09:01N 37°44' E 024°19'015.7
2017-Sep-18 09:00N 37°44' E 024°19'1014.2
2017-Sep-18 08:17N 37°36' E 024°11'414.1
2017-Sep-18 07:59N 37°32' E 024°08'713.9
2017-Sep-18 07:30N 37°27' E 024°04'714.4
2017-Sep-18 07:00N 37°20' E 023°60'714.5
2017-Sep-18 06:31N 37°15' E 023°54'714.7
2017-Sep-18 06:01N 37°09' E 023°49'714.7
2017-Sep-18 05:30N 37°02' E 023°44'714.7
2017-Sep-18 05:00N 36°56' E 023°39'714.3
2017-Sep-18 04:30N 36°50' E 023°34'714.1
2017-Sep-18 04:00N 36°44' E 023°29'714.1
2017-Sep-18 03:30N 36°38' E 023°25'1314.4
2017-Sep-18 02:37N 36°27' E 023°17'214.3
2017-Sep-18 02:30N 36°26' E 023°16'13413.9
2017-Sep-17 16:51N 36°20' E 020°30'513.8
2017-Sep-17 16:30N 36°20' E 020°24'714.0
2017-Sep-17 16:00N 36°20' E 020°15'714.1
2017-Sep-17 15:30N 36°20' E 020°07'714.1
2017-Sep-17 15:00N 36°20' E 019°58'714.5
2017-Sep-17 14:30N 36°20' E 019°49'1714.5
2017-Sep-17 13:21N 36°21' E 019°28'514.6
2017-Sep-17 12:59N 36°21' E 019°22'714.5
2017-Sep-17 12:30N 36°21' E 019°13'2214.3
2017-Sep-17 10:57N 36°21' E 018°45'614.4
2017-Sep-17 10:30N 36°21' E 018°37'714.4
2017-Sep-17 10:00N 36°22' E 018°28'1514.7
2017-Sep-17 08:57N 36°22' E 018°09'714.7
2017-Sep-17 08:30N 36°22' E 018°01'714.7
2017-Sep-17 08:00N 36°22' E 017°52'714.6
2017-Sep-17 07:30N 36°22' E 017°43'714.4
2017-Sep-17 07:00N 36°22' E 017°34'714.2
2017-Sep-17 06:30N 36°22' E 017°25'714.1
2017-Sep-17 06:00N 36°22' E 017°16'714.3
2017-Sep-17 05:30N 36°22' E 017°07'714.5
2017-Sep-17 05:00N 36°22' E 016°58'714.5
2017-Sep-17 04:30N 36°22' E 016°49'714.5
2017-Sep-17 04:00N 36°22' E 016°40'714.5
2017-Sep-17 03:30N 36°22' E 016°31'714.4
2017-Sep-17 03:00N 36°22' E 016°22'714.3
2017-Sep-17 02:30N 36°23' E 016°13'714.1
2017-Sep-17 02:00N 36°23' E 016°04'713.9
2017-Sep-17 01:30N 36°23' E 015°56'713.8
2017-Sep-17 01:00N 36°23' E 015°47'714.0
2017-Sep-17 00:30N 36°23' E 015°39'714.1
2017-Sep-17 00:00N 36°23' E 015°30'714.1
2017-Sep-16 23:30N 36°24' E 015°21'714.5
2017-Sep-16 23:00N 36°24' E 015°12'714.9
2017-Sep-16 22:30N 36°24' E 015°03'815.0
2017-Sep-16 22:00N 36°24' E 014°54'714.9
2017-Sep-16 21:30N 36°24' E 014°44'714.8
2017-Sep-16 21:00N 36°24' E 014°35'714.7
2017-Sep-16 20:30N 36°25' E 014°26'714.6
2017-Sep-16 20:00N 36°28' E 014°18'714.9
2017-Sep-16 19:30N 36°29' E 014°09'814.8
2017-Sep-16 19:00N 36°31' E 013°60'714.6
2017-Sep-16 18:30N 36°34' E 013°51'714.8
2017-Sep-16 18:00N 36°36' E 013°42'714.8
2017-Sep-16 17:30N 36°38' E 013°33'714.6
2017-Sep-16 17:00N 36°40' E 013°25'714.3
2017-Sep-16 16:30N 36°42' E 013°16'714.0
2017-Sep-16 16:00N 36°44' E 013°08'714.0
2017-Sep-16 15:30N 36°45' E 012°59'714.0
2017-Sep-16 15:00N 36°47' E 012°51'714.0
2017-Sep-16 14:30N 36°49' E 012°42'714.1
2017-Sep-16 14:00N 36°51' E 012°34'714.3
2017-Sep-16 13:31N 36°53' E 012°26'714.3
2017-Sep-16 13:00N 36°55' E 012°17'714.1
2017-Sep-16 12:30N 36°56' E 012°08'714.1
2017-Sep-16 12:00N 36°59' E 012°00'714.0
2017-Sep-16 11:30N 37°03' E 011°53'714.0
2017-Sep-16 11:01N 37°06' E 011°45'714.0
2017-Sep-16 10:29N 37°10' E 011°37'713.8
2017-Sep-16 10:00N 37°13' E 011°30'714.1
2017-Sep-16 09:30N 37°17' E 011°22'714.0
2017-Sep-16 09:00N 37°20' E 011°15'714.0
2017-Sep-16 08:30N 37°23' E 011°07'714.1
2017-Sep-16 08:00N 37°25' E 010°58'814.2
2017-Sep-16 07:27N 37°28' E 010°49'614.3
2017-Sep-16 07:00N 37°29' E 010°41'814.8
2017-Sep-16 06:30N 37°30' E 010°32'815.2
2017-Sep-16 05:57N 37°32' E 010°22'715.2
2017-Sep-16 05:29N 37°34' E 010°13'3515.2
2017-Sep-16 03:10N 37°27' E 009°29'5914.7
2017-Sep-15 23:09N 37°19' E 008°16'214.2
2017-Sep-15 22:59N 37°20' E 008°13'713.8
2017-Sep-15 22:30N 37°21' E 008°04'1213.6
2017-Sep-15 21:37N 37°22' E 007°49'313.9
2017-Sep-15 21:23N 37°23' E 007°45'514.0
2017-Sep-15 21:00N 37°24' E 007°39'30014.3
2017-Sep-15 00:02N 36°47' E 001°25'013.5
2017-Sep-15 00:00N 36°47' E 001°24'1713.8
2017-Sep-14 22:48N 36°42' E 001°05'514.3
2017-Sep-14 22:25N 36°41' E 000°58'1314.8
2017-Sep-14 21:32N 36°37' E 000°43'214.8
2017-Sep-14 21:25N 36°36' E 000°40'614.8
2017-Sep-14 21:00N 36°35' E 000°33'714.7
2017-Sep-14 20:30N 36°32' E 000°24'814.6
2017-Sep-14 19:59N 36°30' E 000°15'814.7
2017-Sep-14 19:26N 36°28' E 000°06'1614.8
2017-Sep-14 18:20N 36°23' W 000°14'514.8
2017-Sep-14 18:00N 36°22' W 000°19'914.7
2017-Sep-14 17:25N 36°19' W 000°30'614.6
2017-Sep-14 17:00N 36°18' W 000°37'714.6
2017-Sep-14 16:30N 36°16' W 000°46'3114.7
2017-Sep-14 14:25N 36°07' W 001°22'614.6
2017-Sep-14 13:58N 36°05' W 001°30'1215.0
2017-Sep-14 13:08N 36°01' W 001°44'615.0
2017-Sep-14 12:45N 35°60' W 001°51'514.5
2017-Sep-14 12:23N 35°58' W 001°58'1014.1
2017-Sep-14 11:41N 35°55' W 002°09'513.8
2017-Sep-14 11:20N 35°54' W 002°15'513.8
2017-Sep-14 11:00N 35°53' W 002°20'12614.4
2017-Sep-14 02:13N 35°57' W 004°56'314.1
2017-Sep-14 02:00N 35°57' W 004°60'714.0
2017-Sep-14 01:30N 35°59' W 005°08'714.0
2017-Sep-14 01:01N 35°59' W 005°17'713.9
2017-Sep-14 00:31N 35°58' W 005°25'1215.2
2017-Sep-13 23:44N 35°54' W 005°39'514.8
2017-Sep-13 23:25N 35°54' W 005°45'614.7
2017-Sep-13 22:59N 35°54' W 005°52'4513.8
2017-Sep-13 19:44N 36°00' W 006°47'313.7
2017-Sep-13 19:31N 36°01' W 006°51'4213.7
2017-Sep-13 16:27N 36°12' W 007°41'1013.8
2017-Sep-13 15:43N 36°15' W 007°53'713.8
2017-Sep-13 15:14N 36°17' W 008°01'514.0
2017-Sep-13 14:53N 36°18' W 008°07'814.0
2017-Sep-13 14:18N 36°20' W 008°16'1313.9
2017-Sep-13 13:22N 36°24' W 008°32'514.3
2017-Sep-13 13:00N 36°25' W 008°38'714.4
2017-Sep-13 12:30N 36°27' W 008°47'714.4
2017-Sep-13 12:00N 36°29' W 008°56'714.4
2017-Sep-13 11:30N 36°31' W 009°04'914.6
2017-Sep-13 10:52N 36°33' W 009°15'1014.5
2017-Sep-13 10:12N 36°40' W 009°25'314.5
2017-Sep-13 10:00N 36°42' W 009°27'814.1
2017-Sep-13 09:25N 36°48' W 009°33'714.4
2017-Sep-13 08:57N 36°55' W 009°35'1214.2
2017-Sep-13 08:05N 37°07' W 009°38'214.3
2017-Sep-13 07:59N 37°09' W 009°39'814.3
2017-Sep-13 07:24N 37°16' W 009°41'614.6
2017-Sep-13 07:01N 37°22' W 009°43'714.6
2017-Sep-13 06:31N 37°29' W 009°45'2813.9
2017-Sep-13 04:28N 37°57' W 009°53'613.8
2017-Sep-13 04:00N 38°03' W 009°55'714.2
2017-Sep-13 03:29N 38°10' W 009°58'714.1
2017-Sep-13 03:00N 38°17' W 009°60'714.1
2017-Sep-13 02:29N 38°24' W 010°03'714.4
2017-Sep-13 02:00N 38°30' W 010°05'714.4
2017-Sep-13 01:30N 38°38' W 010°05'714.8
2017-Sep-13 01:01N 38°45' W 010°07'814.9
2017-Sep-13 00:28N 38°53' W 010°06'715.1
2017-Sep-12 23:59N 39°00' W 010°07'715.0
2017-Sep-12 23:30N 39°08' W 010°07'714.6
2017-Sep-12 23:00N 39°15' W 010°07'714.0
2017-Sep-12 22:30N 39°22' W 010°08'714.2
2017-Sep-12 22:00N 39°29' W 010°08'714.4
2017-Sep-12 21:31N 39°36' W 010°07'814.5
2017-Sep-12 20:57N 39°44' W 010°07'714.6
2017-Sep-12 20:30N 39°51' W 010°07'  
2017-Sep-10 16:26N 49°08' W 005°11'510.3
2017-Sep-10 15:57N 49°11' W 005°05'1210.7
2017-Sep-10 14:49N 49°17' W 004°49'3311.5
2017-Sep-10 11:55N 49°34' W 004°04'610.6
2017-Sep-10 11:19N 49°37' W 003°56'310.7
2017-Sep-10 11:00N 49°39' W 003°51'510.4
2017-Sep-10 10:30N 49°41' W 003°44'510.5
2017-Sep-10 10:00N 49°44' W 003°37'510.1
2017-Sep-10 09:30N 49°47' W 003°31'5 9.9
2017-Sep-10 09:00N 49°49' W 003°24'5 9.8
2017-Sep-10 08:30N 49°51' W 003°17'510.0
2017-Sep-10 08:00N 49°53' W 003°10'510.3
2017-Sep-10 07:30N 49°56' W 003°03'510.9
2017-Sep-10 07:00N 49°59' W 002°57'611.4
2017-Sep-10 06:30N 50°01' W 002°48'612.7
2017-Sep-10 06:00N 50°03' W 002°39'2815.0
2017-Sep-10 04:08N 50°10' W 001°56'216.2
2017-Sep-10 04:00N 50°10' W 001°53'816.1
2017-Sep-10 03:30N 50°12' W 001°41'815.7
2017-Sep-10 03:01N 50°14' W 001°29'815.0
2017-Sep-10 02:30N 50°16' W 001°18'714.1
2017-Sep-10 02:00N 50°18' W 001°07'2511.3
2017-Sep-09 23:46N 50°25' W 000°29'  
Track history (hours):
 
Tides and Currents Weather Stations Pressure Air Temp Water Temp Dewpoint Dewpoint Depression Visibility Wind Speed Wind Dir Waves Ship Positions

Bridgegate

Last reported at 2017-Sep-19 23:34 UTC. Time now 2017-Sep-23 02:25 UTC.
Position N 40°29' E 027°07'.

Length 190 m; draft 10.8 m.

Type: Cargo ship. MMSI: 566987000.

Date/timePositionNaut miles runAvg speedWind from/ knotsBaromVisibWave heightAir tempDewpointWater temp
2017-Sep-19 23:34N 40°29' E 027°07'0 0.1
2017-Sep-19 23:19N 40°29' E 027°07'0 0.0
2017-Sep-19 22:52N 40°29' E 027°07'0 0.0
2017-Sep-19 21:10N 40°29' E 027°07'0 0.0
2017-Sep-19 20:28N 40°29' E 027°07'0 0.0
2017-Sep-19 18:34N 40°29' E 027°07'0 0.0
2017-Sep-19 17:28N 40°29' E 027°07'0 0.1
2017-Sep-19 15:55N 40°29' E 027°07'37 2.1
2017-Sep-18 22:21N 40°12' E 026°25'1211.5
2017-Sep-18 21:16N 40°02' E 026°16'312.1
2017-Sep-18 21:00N 40°01' E 026°12'5 9.1
2017-Sep-18 20:29N 39°60' E 026°06'612.9
2017-Sep-18 20:00N 39°57' E 025°59'612.7
2017-Sep-18 19:30N 39°52' E 025°53'612.9
2017-Sep-18 19:00N 39°47' E 025°50'814.1
2017-Sep-18 18:28N 39°40' E 025°45'3614.4
2017-Sep-18 15:59N 39°08' E 025°24'3514.5
2017-Sep-18 13:36N 38°37' E 025°04'2714.4
2017-Sep-18 11:44N 38°13' E 024°49'314.8
2017-Sep-18 11:30N 38°10' E 024°46'1615.2
2017-Sep-18 10:28N 37°56' E 024°37'1912.7
2017-Sep-18 09:01N 37°44' E 024°19'015.7
2017-Sep-18 09:00N 37°44' E 024°19'1014.2
2017-Sep-18 08:17N 37°36' E 024°11'414.1
2017-Sep-18 07:59N 37°32' E 024°08'713.9
2017-Sep-18 07:30N 37°27' E 024°04'714.4
2017-Sep-18 07:00N 37°20' E 023°60'714.5
2017-Sep-18 06:31N 37°15' E 023°54'714.7
2017-Sep-18 06:01N 37°09' E 023°49'714.7
2017-Sep-18 05:30N 37°02' E 023°44'714.7
2017-Sep-18 05:00N 36°56' E 023°39'714.3
2017-Sep-18 04:30N 36°50' E 023°34'714.1
2017-Sep-18 04:00N 36°44' E 023°29'714.1
2017-Sep-18 03:30N 36°38' E 023°25'1314.4
2017-Sep-18 02:37N 36°27' E 023°17'214.3
2017-Sep-18 02:30N 36°26' E 023°16'13413.9
2017-Sep-17 16:51N 36°20' E 020°30'513.8
2017-Sep-17 16:30N 36°20' E 020°24'714.0
2017-Sep-17 16:00N 36°20' E 020°15'714.1
2017-Sep-17 15:30N 36°20' E 020°07'714.1
2017-Sep-17 15:00N 36°20' E 019°58'714.5
2017-Sep-17 14:30N 36°20' E 019°49'1714.5
2017-Sep-17 13:21N 36°21' E 019°28'514.6
2017-Sep-17 12:59N 36°21' E 019°22'714.5
2017-Sep-17 12:30N 36°21' E 019°13'2214.3
2017-Sep-17 10:57N 36°21' E 018°45'614.4
2017-Sep-17 10:30N 36°21' E 018°37'714.4
2017-Sep-17 10:00N 36°22' E 018°28'1514.7
2017-Sep-17 08:57N 36°22' E 018°09'714.7
2017-Sep-17 08:30N 36°22' E 018°01'714.7
2017-Sep-17 08:00N 36°22' E 017°52'714.6
2017-Sep-17 07:30N 36°22' E 017°43'714.4
2017-Sep-17 07:00N 36°22' E 017°34'714.2
2017-Sep-17 06:30N 36°22' E 017°25'714.1
2017-Sep-17 06:00N 36°22' E 017°16'714.3
2017-Sep-17 05:30N 36°22' E 017°07'714.5
2017-Sep-17 05:00N 36°22' E 016°58'714.5
2017-Sep-17 04:30N 36°22' E 016°49'714.5
2017-Sep-17 04:00N 36°22' E 016°40'714.5
2017-Sep-17 03:30N 36°22' E 016°31'714.4
2017-Sep-17 03:00N 36°22' E 016°22'714.3
2017-Sep-17 02:30N 36°23' E 016°13'714.1
2017-Sep-17 02:00N 36°23' E 016°04'713.9
2017-Sep-17 01:30N 36°23' E 015°56'713.8
2017-Sep-17 01:00N 36°23' E 015°47'714.0
2017-Sep-17 00:30N 36°23' E 015°39'714.1
2017-Sep-17 00:00N 36°23' E 015°30'714.1
2017-Sep-16 23:30N 36°24' E 015°21'714.5
2017-Sep-16 23:00N 36°24' E 015°12'714.9
2017-Sep-16 22:30N 36°24' E 015°03'815.0
2017-Sep-16 22:00N 36°24' E 014°54'714.9
2017-Sep-16 21:30N 36°24' E 014°44'714.8
2017-Sep-16 21:00N 36°24' E 014°35'714.7
2017-Sep-16 20:30N 36°25' E 014°26'714.6
2017-Sep-16 20:00N 36°28' E 014°18'714.9
2017-Sep-16 19:30N 36°29' E 014°09'814.8
2017-Sep-16 19:00N 36°31' E 013°60'714.6
2017-Sep-16 18:30N 36°34' E 013°51'714.8
2017-Sep-16 18:00N 36°36' E 013°42'714.8
2017-Sep-16 17:30N 36°38' E 013°33'714.6
2017-Sep-16 17:00N 36°40' E 013°25'714.3
2017-Sep-16 16:30N 36°42' E 013°16'714.0
2017-Sep-16 16:00N 36°44' E 013°08'714.0
2017-Sep-16 15:30N 36°45' E 012°59'714.0
2017-Sep-16 15:00N 36°47' E 012°51'714.0
2017-Sep-16 14:30N 36°49' E 012°42'714.1
2017-Sep-16 14:00N 36°51' E 012°34'714.3
2017-Sep-16 13:31N 36°53' E 012°26'714.3
2017-Sep-16 13:00N 36°55' E 012°17'714.1
2017-Sep-16 12:30N 36°56' E 012°08'714.1
2017-Sep-16 12:00N 36°59' E 012°00'714.0
2017-Sep-16 11:30N 37°03' E 011°53'714.0
2017-Sep-16 11:01N 37°06' E 011°45'714.0
2017-Sep-16 10:29N 37°10' E 011°37'713.8
2017-Sep-16 10:00N 37°13' E 011°30'714.1
2017-Sep-16 09:30N 37°17' E 011°22'714.0
2017-Sep-16 09:00N 37°20' E 011°15'714.0
2017-Sep-16 08:30N 37°23' E 011°07'714.1
2017-Sep-16 08:00N 37°25' E 010°58'814.2
2017-Sep-16 07:27N 37°28' E 010°49'614.3
2017-Sep-16 07:00N 37°29' E 010°41'814.8
2017-Sep-16 06:30N 37°30' E 010°32'815.2
2017-Sep-16 05:57N 37°32' E 010°22'715.2
2017-Sep-16 05:29N 37°34' E 010°13'3515.2
2017-Sep-16 03:10N 37°27' E 009°29'5914.7
2017-Sep-15 23:09N 37°19' E 008°16'214.2
2017-Sep-15 22:59N 37°20' E 008°13'713.8
2017-Sep-15 22:30N 37°21' E 008°04'1213.6
2017-Sep-15 21:37N 37°22' E 007°49'313.9
2017-Sep-15 21:23N 37°23' E 007°45'514.0
2017-Sep-15 21:00N 37°24' E 007°39'30014.3
2017-Sep-15 00:02N 36°47' E 001°25'013.5
2017-Sep-15 00:00N 36°47' E 001°24'1713.8
2017-Sep-14 22:48N 36°42' E 001°05'514.3
2017-Sep-14 22:25N 36°41' E 000°58'1314.8
2017-Sep-14 21:32N 36°37' E 000°43'214.8
2017-Sep-14 21:25N 36°36' E 000°40'614.8
2017-Sep-14 21:00N 36°35' E 000°33'714.7
2017-Sep-14 20:30N 36°32' E 000°24'814.6
2017-Sep-14 19:59N 36°30' E 000°15'814.7
2017-Sep-14 19:26N 36°28' E 000°06'1614.8
2017-Sep-14 18:20N 36°23' W 000°14'514.8
2017-Sep-14 18:00N 36°22' W 000°19'914.7
2017-Sep-14 17:25N 36°19' W 000°30'614.6
2017-Sep-14 17:00N 36°18' W 000°37'714.6
2017-Sep-14 16:30N 36°16' W 000°46'3114.7
2017-Sep-14 14:25N 36°07' W 001°22'614.6
2017-Sep-14 13:58N 36°05' W 001°30'1215.0
2017-Sep-14 13:08N 36°01' W 001°44'615.0
2017-Sep-14 12:45N 35°60' W 001°51'514.5
2017-Sep-14 12:23N 35°58' W 001°58'1014.1
2017-Sep-14 11:41N 35°55' W 002°09'513.8
2017-Sep-14 11:20N 35°54' W 002°15'513.8
2017-Sep-14 11:00N 35°53' W 002°20'12614.4
2017-Sep-14 02:13N 35°57' W 004°56'314.1
2017-Sep-14 02:00N 35°57' W 004°60'714.0
2017-Sep-14 01:30N 35°59' W 005°08'714.0
2017-Sep-14 01:01N 35°59' W 005°17'713.9
2017-Sep-14 00:31N 35°58' W 005°25'1215.2
2017-Sep-13 23:44N 35°54' W 005°39'514.8
2017-Sep-13 23:25N 35°54' W 005°45'614.7
2017-Sep-13 22:59N 35°54' W 005°52'4513.8
2017-Sep-13 19:44N 36°00' W 006°47'313.7
2017-Sep-13 19:31N 36°01' W 006°51'4213.7
2017-Sep-13 16:27N 36°12' W 007°41'1013.8
2017-Sep-13 15:43N 36°15' W 007°53'713.8
2017-Sep-13 15:14N 36°17' W 008°01'514.0
2017-Sep-13 14:53N 36°18' W 008°07'814.0
2017-Sep-13 14:18N 36°20' W 008°16'1313.9
2017-Sep-13 13:22N 36°24' W 008°32'514.3
2017-Sep-13 13:00N 36°25' W 008°38'714.4
2017-Sep-13 12:30N 36°27' W 008°47'714.4
2017-Sep-13 12:00N 36°29' W 008°56'714.4
2017-Sep-13 11:30N 36°31' W 009°04'914.6
2017-Sep-13 10:52N 36°33' W 009°15'1014.5
2017-Sep-13 10:12N 36°40' W 009°25'314.5
2017-Sep-13 10:00N 36°42' W 009°27'814.1
2017-Sep-13 09:25N 36°48' W 009°33'714.4
2017-Sep-13 08:57N 36°55' W 009°35'1214.2
2017-Sep-13 08:05N 37°07' W 009°38'214.3
2017-Sep-13 07:59N 37°09' W 009°39'814.3
2017-Sep-13 07:24N 37°16' W 009°41'614.6
2017-Sep-13 07:01N 37°22' W 009°43'714.6
2017-Sep-13 06:31N 37°29' W 009°45'2813.9
2017-Sep-13 04:28N 37°57' W 009°53'613.8
2017-Sep-13 04:00N 38°03' W 009°55'714.2
2017-Sep-13 03:29N 38°10' W 009°58'714.1
2017-Sep-13 03:00N 38°17' W 009°60'714.1
2017-Sep-13 02:29N 38°24' W 010°03'714.4
2017-Sep-13 02:00N 38°30' W 010°05'714.4
2017-Sep-13 01:30N 38°38' W 010°05'714.8
2017-Sep-13 01:01N 38°45' W 010°07'814.9
2017-Sep-13 00:28N 38°53' W 010°06'715.1
2017-Sep-12 23:59N 39°00' W 010°07'715.0
2017-Sep-12 23:30N 39°08' W 010°07'714.6
2017-Sep-12 23:00N 39°15' W 010°07'714.0
2017-Sep-12 22:30N 39°22' W 010°08'714.2
2017-Sep-12 22:00N 39°29' W 010°08'714.4
2017-Sep-12 21:31N 39°36' W 010°07'814.5
2017-Sep-12 20:57N 39°44' W 010°07'714.6
2017-Sep-12 20:30N 39°51' W 010°07'  
2017-Sep-10 16:26N 49°08' W 005°11'510.3
2017-Sep-10 15:57N 49°11' W 005°05'1210.7
2017-Sep-10 14:49N 49°17' W 004°49'3311.5
2017-Sep-10 11:55N 49°34' W 004°04'610.6
2017-Sep-10 11:19N 49°37' W 003°56'310.7
2017-Sep-10 11:00N 49°39' W 003°51'510.4
2017-Sep-10 10:30N 49°41' W 003°44'510.5
2017-Sep-10 10:00N 49°44' W 003°37'510.1
2017-Sep-10 09:30N 49°47' W 003°31'5 9.9
2017-Sep-10 09:00N 49°49' W 003°24'5 9.8
2017-Sep-10 08:30N 49°51' W 003°17'510.0
2017-Sep-10 08:00N 49°53' W 003°10'510.3
2017-Sep-10 07:30N 49°56' W 003°03'510.9
2017-Sep-10 07:00N 49°59' W 002°57'611.4
2017-Sep-10 06:30N 50°01' W 002°48'612.7
2017-Sep-10 06:00N 50°03' W 002°39'2815.0
2017-Sep-10 04:08N 50°10' W 001°56'216.2
2017-Sep-10 04:00N 50°10' W 001°53'816.1
2017-Sep-10 03:30N 50°12' W 001°41'815.7
2017-Sep-10 03:01N 50°14' W 001°29'815.0
2017-Sep-10 02:30N 50°16' W 001°18'714.1
2017-Sep-10 02:00N 50°18' W 001°07'2511.3
2017-Sep-09 23:46N 50°25' W 000°29'  

Dump ship's entire track history